Time;durP1;ratioP1;P1;durP2;ratioP2;P2;SDS_P1;SDS_P2;PMS_P1;PMS_P2;Temp;Humidity;BMP_temperature;BMP_pressure;BME280_temperature;BME280_humidity;BME280_pressure;Samples;Min_cycle;Max_cycle;Signal;HPM_P1;HPM_P2
2021/09/27 00:01:14;;;;;;;9.60;5.75;;;16.80;94.90;;;;;;5029062;28;20064;-70
2021/09/27 00:03:41;;;;;;;11.10;6.38;;;16.80;94.70;;;;;;5027261;28;20030;-70
2021/09/27 00:06:08;;;;;;;9.70;5.50;;;16.80;94.80;;;;;;5028639;28;20025;-70
2021/09/27 00:08:33;;;;;;;10.50;5.75;;;16.80;94.70;;;;;;5028447;28;20494;-71
2021/09/27 00:11:10;;;;;;;10.75;5.90;;;16.80;94.60;;;;;;5028207;28;20029;-70
2021/09/27 00:13:39;;;;;;;8.30;5.28;;;16.80;94.50;;;;;;5029626;28;20056;-70
2021/09/27 00:16:07;;;;;;;9.38;5.50;;;16.80;94.90;;;;;;5028402;28;20068;-70
2021/09/27 00:18:33;;;;;;;8.55;4.93;;;16.80;95.20;;;;;;5032478;28;20026;-70
2021/09/27 00:21:02;;;;;;;9.95;5.72;;;16.80;94.70;;;;;;5030344;28;20029;-71
2021/09/27 00:23:30;;;;;;;10.93;5.80;;;16.80;94.80;;;;;;5029628;28;20573;-70
2021/09/27 00:25:56;;;;;;;8.57;5.40;;;16.80;94.60;;;;;;5030206;28;20029;-70
2021/09/27 00:28:22;;;;;;;9.57;5.93;;;16.80;94.60;;;;;;5026666;28;20071;-71
2021/09/27 00:30:48;;;;;;;10.30;6.30;;;16.80;94.90;;;;;;5028907;28;20532;-70
2021/09/27 00:33:17;;;;;;;10.45;6.60;;;16.80;95.00;;;;;;5029835;28;20084;-70
2021/09/27 00:35:43;;;;;;;12.32;6.65;;;16.80;95.30;;;;;;5029100;28;20029;-70
2021/09/27 00:38:10;;;;;;;9.98;6.00;;;16.70;95.80;;;;;;5028703;28;20546;-70
2021/09/27 00:40:41;;;;;;;7.83;5.70;;;16.70;95.40;;;;;;5028310;28;20463;-70
2021/09/27 00:43:08;;;;;;;9.07;5.57;;;16.70;95.40;;;;;;5028406;28;20341;-70
2021/09/27 00:45:38;;;;;;;10.43;5.80;;;16.60;95.10;;;;;;5027860;28;20049;-70
2021/09/27 00:48:04;;;;;;;10.65;6.22;;;16.60;95.10;;;;;;5027284;28;20075;-70
2021/09/27 00:50:36;;;;;;;8.52;5.93;;;16.60;95.20;;;;;;5027668;28;20037;-70
2021/09/27 00:53:05;;;;;;;10.02;5.57;;;16.60;95.50;;;;;;5027506;28;20112;-70
2021/09/27 00:55:31;;;;;;;8.82;5.45;;;16.60;95.10;;;;;;5028179;28;20030;-70
2021/09/27 00:57:57;;;;;;;10.30;5.75;;;16.60;94.90;;;;;;5026978;28;20091;-70
2021/09/27 01:00:25;;;;;;;8.85;6.15;;;16.60;94.70;;;;;;5029382;28;20040;-70
2021/09/27 01:02:51;;;;;;;9.88;6.00;;;16.60;94.70;;;;;;5030535;28;20037;-71
2021/09/27 01:05:19;;;;;;;7.45;5.22;;;16.60;94.90;;;;;;5030028;28;20028;-70
2021/09/27 01:08:14;;;;;;;7.20;5.47;;;16.60;94.60;;;;;;5025380;28;20240;-70
2021/09/27 01:10:58;;;;;;;9.75;6.47;;;16.60;94.60;;;;;;5028257;28;20053;-70
2021/09/27 01:13:43;;;;;;;8.95;6.00;;;16.60;94.80;;;;;;5026082;28;20029;-70
2021/09/27 01:16:30;;;;;;;9.43;5.57;;;16.60;94.80;;;;;;5030469;28;20029;-70
2021/09/27 01:19:51;;;;;;;11.90;6.22;;;16.60;94.80;;;;;;5029858;28;20045;-70
2021/09/27 01:22:58;;;;;;;10.00;5.55;;;16.60;95.10;;;;;;5009625;28;20707;-70
2021/09/27 01:25:40;;;;;;;9.93;6.03;;;16.50;94.50;;;;;;5029986;28;20033;-72
2021/09/27 01:28:05;;;;;;;9.00;6.00;;;16.50;94.80;;;;;;5030239;28;20475;-70
2021/09/27 01:30:50;;;;;;;12.10;6.40;;;16.50;95.00;;;;;;5039916;28;20029;-70
2021/09/27 01:33:25;;;;;;;12.10;6.70;;;16.50;95.20;;;;;;5005739;28;20353;-70
2021/09/27 01:36:03;;;;;;;10.07;6.10;;;16.40;95.30;;;;;;5007506;28;20033;-70
2021/09/27 01:38:40;;;;;;;8.38;4.95;;;16.40;95.20;;;;;;5022633;28;20044;-70
2021/09/27 01:41:34;;;;;;;6.68;4.22;;;16.40;94.50;;;;;;5006260;28;20116;-70
2021/09/27 01:44:35;;;;;;;5.55;3.63;;;16.40;94.20;;;;;;5007009;28;20078;-70
2021/09/27 01:47:05;;;;;;;7.63;3.65;;;16.30;94.10;;;;;;4970694;28;20053;-70
2021/09/27 01:49:39;;;;;;;17.88;3.92;;;16.40;93.90;;;;;;5008158;28;20022;-70
2021/09/27 01:52:18;;;;;;;5.55;3.63;;;16.30;94.20;;;;;;5007492;28;20029;-70
2021/09/27 01:54:48;;;;;;;5.72;3.50;;;16.20;94.30;;;;;;5008386;28;20022;-70
2021/09/27 01:57:19;;;;;;;5.90;3.88;;;16.20;94.20;;;;;;5007488;28;20030;-71
2021/09/27 02:00:03;;;;;;;6.28;4.28;;;16.20;94.20;;;;;;5006178;28;20040;-70
2021/09/27 02:02:51;;;;;;;9.75;5.22;;;16.20;94.00;;;;;;5004759;28;20069;-70
2021/09/27 02:05:32;;;;;;;5.93;4.38;;;16.20;93.90;;;;;;5008552;28;20471;-70
2021/09/27 02:08:02;;;;;;;10.25;5.35;;;16.20;93.80;;;;;;5007775;28;20742;-70
2021/09/27 02:10:41;;;;;;;6.80;4.30;;;16.10;94.00;;;;;;5005867;28;20401;-70
2021/09/27 02:13:17;;;;;;;8.60;4.85;;;16.00;94.00;;;;;;5008242;28;20521;-70
2021/09/27 02:15:53;;;;;;;8.68;4.63;;;16.10;94.20;;;;;;5007360;28;20037;-70
2021/09/27 02:18:30;;;;;;;8.32;5.32;;;16.10;93.80;;;;;;5009745;28;20391;-70
2021/09/27 02:21:03;;;;;;;8.73;5.40;;;16.10;93.60;;;;;;5009091;28;20108;-70
2021/09/27 02:23:37;;;;;;;7.57;4.95;;;16.00;93.60;;;;;;5013045;28;20034;-70
2021/09/27 02:26:03;;;;;;;10.55;5.32;;;16.00;94.00;;;;;;5010114;28;20570;-70
2021/09/27 02:28:29;;;;;;;12.40;6.55;;;15.80;94.80;;;;;;5012520;28;20052;-70
2021/09/27 02:31:04;;;;;;;11.50;6.72;;;15.60;95.70;;;;;;5008221;28;20103;-70
2021/09/27 02:33:38;;;;;;;8.27;5.63;;;15.70;95.00;;;;;;5011011;28;20202;-71
2021/09/27 02:36:13;;;;;;;10.07;5.93;;;15.80;94.70;;;;;;5026300;28;20493;-70
2021/09/27 02:38:41;;;;;;;8.48;5.50;;;15.80;94.20;;;;;;5011217;28;20399;-70
2021/09/27 02:41:16;;;;;;;6.47;4.68;;;15.80;94.30;;;;;;5010621;28;20030;-70
2021/09/27 02:43:43;;;;;;;8.80;5.35;;;15.70;94.50;;;;;;5010019;28;20529;-70
2021/09/27 02:46:10;;;;;;;10.60;5.28;;;15.80;93.80;;;;;;5009079;28;20808;-70
2021/09/27 02:48:40;;;;;;;10.98;5.68;;;15.70;93.80;;;;;;5010445;28;20109;-71
2021/09/27 02:51:11;;;;;;;7.78;4.70;;;15.70;93.90;;;;;;5011452;28;20348;-70
2021/09/27 02:53:37;;;;;;;12.90;3.10;;;15.70;93.70;;;;;;5010803;28;20393;-70
2021/09/27 02:56:51;;;;;;;6.63;3.35;;;15.60;92.20;;;;;;5012299;28;20038;-70
2021/09/27 02:59:44;;;;;;;43.15;6.55;;;15.40;92.40;;;;;;5006839;28;20034;-70
2021/09/27 03:02:28;;;;;;;57.00;4.18;;;15.30;92.90;;;;;;5019142;28;20392;-70
2021/09/27 03:05:18;;;;;;;21.95;4.43;;;15.20;93.30;;;;;;5011134;28;20399;-70
2021/09/27 03:07:52;;;;;;;55.63;3.53;;;15.00;93.90;;;;;;5005361;28;20034;-70
2021/09/27 03:10:51;;;;;;;33.70;3.25;;;14.90;94.20;;;;;;5019672;28;20034;-72
2021/09/27 03:13:33;;;;;;;72.75;5.10;;;14.90;94.20;;;;;;5016065;28;20395;-70
2021/09/27 03:16:25;;;;;;;19.00;3.10;;;14.80;94.10;;;;;;5010537;28;20076;-70
2021/09/27 03:19:02;;;;;;;26.92;3.22;;;14.80;94.10;;;;;;5008072;28;20026;-70
2021/09/27 03:21:30;;;;;;;3.85;2.97;;;14.80;94.90;;;;;;5026175;28;20030;-70
2021/09/27 03:24:17;;;;;;;3.45;2.78;;;14.80;95.00;;;;;;5013840;28;20026;-74
2021/09/27 03:27:16;;;;;;;4.30;3.10;;;14.90;94.40;;;;;;5013260;28;20041;-70
2021/09/27 03:30:02;;;;;;;4.38;3.28;;;14.90;94.20;;;;;;5012821;28;20068;-70
2021/09/27 03:33:06;;;;;;;10.15;3.25;;;14.90;94.30;;;;;;5008900;28;20109;-70
2021/09/27 03:36:09;;;;;;;5.32;2.85;;;14.90;94.50;;;;;;5020860;28;20038;-70
2021/09/27 03:39:03;;;;;;;2.58;2.38;;;14.90;93.80;;;;;;5010806;28;20037;-71
2021/09/27 03:41:43;;;;;;;2.97;2.38;;;14.70;93.00;;;;;;4997160;28;20053;-70
2021/09/27 03:44:17;;;;;;;4.57;2.60;;;14.70;93.50;;;;;;5015058;28;20038;-70
2021/09/27 03:46:52;;;;;;;4.10;2.40;;;14.70;93.80;;;;;;5005662;28;21977;-70
2021/09/27 03:49:39;;;;;;;2.83;2.63;;;14.60;93.90;;;;;;5009315;28;20022;-70
2021/09/27 03:52:13;;;;;;;2.38;2.17;;;14.70;94.00;;;;;;5006200;28;20030;-70
2021/09/27 03:54:52;;;;;;;2.20;2.00;;;14.70;93.60;;;;;;5010785;28;20092;-70
2021/09/27 03:57:32;;;;;;;3.42;2.60;;;14.60;93.20;;;;;;5026500;28;20026;-70
2021/09/27 04:00:17;;;;;;;13.40;3.10;;;14.70;94.00;;;;;;5009386;28;20033;-70
2021/09/27 04:02:57;;;;;;;4.85;3.20;;;14.60;94.20;;;;;;5007628;28;20057;-70
2021/09/27 04:05:49;;;;;;;3.60;2.60;;;14.60;94.30;;;;;;5008773;28;20029;-70
2021/09/27 04:09:01;;;;;;;3.97;3.03;;;14.50;94.10;;;;;;5011122;28;20030;-70
2021/09/27 04:11:58;;;;;;;5.18;3.42;;;14.50;94.50;;;;;;4981727;28;20034;-70
2021/09/27 04:14:34;;;;;;;9.57;4.03;;;14.50;94.80;;;;;;5006672;28;20026;-69
2021/09/27 04:17:37;;;;;;;4.60;3.70;;;14.60;94.80;;;;;;5009686;28;20030;-70
2021/09/27 04:20:18;;;;;;;7.43;3.78;;;14.60;94.50;;;;;;5008828;28;20037;-70
2021/09/27 04:23:10;;;;;;;19.35;3.95;;;14.60;94.30;;;;;;5009570;28;20389;-70
2021/09/27 04:25:59;;;;;;;7.55;3.60;;;14.60;94.80;;;;;;5009139;28;20049;-70
2021/09/27 04:28:48;;;;;;;7.38;3.30;;;14.60;94.70;;;;;;5010050;28;20034;-70
2021/09/27 04:31:24;;;;;;;3.80;3.35;;;14.60;95.00;;;;;;5006719;28;20060;-70
2021/09/27 04:34:14;;;;;;;5.13;3.80;;;14.70;94.60;;;;;;5009836;28;20116;-71
2021/09/27 04:36:44;;;;;;;5.30;3.55;;;14.60;94.90;;;;;;5022531;28;20088;-70
2021/09/27 04:39:15;;;;;;;4.78;3.53;;;14.60;95.10;;;;;;5010522;28;20509;-71
2021/09/27 04:42:11;;;;;;;4.85;3.60;;;14.60;95.00;;;;;;5021320;28;20040;-71
2021/09/27 04:45:04;;;;;;;5.28;3.67;;;14.60;94.80;;;;;;5022471;28;20045;-70
2021/09/27 04:47:53;;;;;;;4.93;3.78;;;14.70;94.80;;;;;;5008776;28;20364;-69
2021/09/27 04:50:40;;;;;;;4.65;3.60;;;14.70;94.80;;;;;;5010430;28;20431;-69
2021/09/27 04:53:31;;;;;;;5.75;4.05;;;14.70;94.60;;;;;;5003241;28;20033;-70
2021/09/27 04:56:03;;;;;;;5.65;3.75;;;14.70;94.70;;;;;;5000376;28;20069;-69
2021/09/27 04:59:06;;;;;;;4.53;3.38;;;14.70;94.80;;;;;;5005635;28;20033;-70
2021/09/27 05:01:51;;;;;;;5.15;4.10;;;14.70;94.70;;;;;;5007780;28;20037;-70
2021/09/27 05:04:35;;;;;;;4.28;3.78;;;14.60;95.00;;;;;;5010643;28;20061;-70
2021/09/27 05:07:42;;;;;;;4.93;2.97;;;14.60;94.90;;;;;;5016805;28;20029;-70
2021/09/27 05:10:17;;;;;;;5.53;3.83;;;14.60;95.00;;;;;;4978473;28;20045;-70
2021/09/27 05:12:51;;;;;;;6.50;4.40;;;14.60;95.60;;;;;;5008093;28;20030;-70
2021/09/27 05:15:32;;;;;;;6.97;4.47;;;14.60;95.70;;;;;;5004857;28;20367;-70
2021/09/27 05:18:16;;;;;;;6.47;4.75;;;14.70;95.60;;;;;;5006840;28;20018;-70
2021/09/27 05:20:43;;;;;;;7.38;4.65;;;14.70;95.50;;;;;;5009034;28;20023;-70
2021/09/27 05:23:56;;;;;;;5.63;4.15;;;14.70;95.80;;;;;;5009320;28;20022;-70
2021/09/27 05:26:48;;;;;;;7.85;4.25;;;14.70;95.40;;;;;;4971667;28;20050;-70
2021/09/27 05:29:35;;;;;;;6.97;4.40;;;14.70;95.40;;;;;;5007978;28;20479;-70
2021/09/27 05:32:32;;;;;;;6.00;4.07;;;14.70;95.50;;;;;;5005437;28;20766;-70
2021/09/27 05:35:00;;;;;;;5.25;4.10;;;14.70;95.60;;;;;;5001704;28;20046;-69
2021/09/27 05:37:26;;;;;;;;;;;14.70;95.30;;;;;;5012913;28;20034;-70
2021/09/27 05:40:10;;;;;;;7.20;4.13;;;14.70;95.50;;;;;;5008785;28;20039;-70
2021/09/27 05:43:00;;;;;;;6.85;4.05;;;14.70;95.40;;;;;;5006770;28;20037;-69
2021/09/27 05:45:43;;;;;;;9.48;4.95;;;14.70;95.40;;;;;;5007570;28;20050;-69
2021/09/27 05:48:28;;;;;;;8.02;4.70;;;14.70;95.40;;;;;;5008462;28;20022;-69
2021/09/27 05:51:11;;;;;;;5.00;3.97;;;14.70;95.50;;;;;;5019726;28;21480;-70
2021/09/27 05:53:36;;;;;;;7.85;4.60;;;14.70;95.80;;;;;;5009145;28;20029;-70
2021/09/27 05:56:34;;;;;;;7.75;4.43;;;14.70;95.80;;;;;;5007018;28;20033;-70
2021/09/27 05:59:24;;;;;;;6.32;3.80;;;14.70;95.70;;;;;;5005770;28;20522;-70
2021/09/27 06:02:34;;;;;;;7.57;5.00;;;14.80;95.90;;;;;;5019313;28;20042;-70
2021/09/27 06:05:18;;;;;;;6.53;4.55;;;14.80;95.90;;;;;;5011476;28;20050;-70
2021/09/27 06:08:15;;;;;;;9.32;5.38;;;14.80;95.90;;;;;;5029237;28;20540;-70
2021/09/27 06:11:00;;;;;;;7.07;4.80;;;14.80;96.10;;;;;;5029318;28;20024;-69
2021/09/27 06:13:32;;;;;;;6.32;4.28;;;14.80;96.30;;;;;;5026484;28;20065;-70
2021/09/27 06:16:17;;;;;;;7.68;4.85;;;14.90;96.20;;;;;;5027340;28;20036;-71
2021/09/27 06:19:13;;;;;;;8.13;5.07;;;14.90;95.90;;;;;;5023169;28;20033;-70
2021/09/27 06:21:41;;;;;;;7.63;4.53;;;14.90;96.40;;;;;;5023010;28;20979;-70
2021/09/27 06:24:10;;;;;;;8.10;5.10;;;14.90;96.40;;;;;;5022594;28;20029;-70
2021/09/27 06:26:44;;;;;;;8.02;4.90;;;15.00;96.50;;;;;;5020423;28;20037;-69
2021/09/27 06:29:50;;;;;;;9.63;5.32;;;14.90;96.60;;;;;;5026459;28;20026;-70
2021/09/27 06:32:18;;;;;;;9.80;5.70;;;14.90;96.70;;;;;;5023543;28;20033;-70
2021/09/27 06:34:57;;;;;;;7.95;5.15;;;15.00;96.90;;;;;;5022718;28;20446;-69
2021/09/27 06:37:25;;;;;;;7.28;4.68;;;15.00;96.70;;;;;;5021813;28;20033;-70
2021/09/27 06:39:52;;;;;;;11.45;6.22;;;14.90;96.50;;;;;;5023775;28;20777;-70
2021/09/27 06:42:17;;;;;;;9.23;5.63;;;15.00;96.70;;;;;;5025266;28;20470;-70
2021/09/27 06:44:45;;;;;;;9.45;5.00;;;15.00;96.30;;;;;;5028371;28;20061;-69
2021/09/27 06:47:13;;;;;;;6.88;4.88;;;15.00;96.20;;;;;;5026151;28;20505;-69
2021/09/27 06:49:39;;;;;;;8.98;5.43;;;15.00;96.30;;;;;;5029200;28;20037;-70
2021/09/27 06:52:05;;;;;;;9.18;5.30;;;15.10;96.40;;;;;;5027315;28;20036;-70
2021/09/27 06:54:30;;;;;;;7.38;5.38;;;15.10;96.60;;;;;;5029117;28;20113;-70
2021/09/27 06:56:57;;;;;;;9.95;4.97;;;15.10;96.50;;;;;;5028799;28;20030;-70
2021/09/27 06:59:23;;;;;;;8.38;5.28;;;15.10;96.70;;;;;;5026703;28;20029;-70
2021/09/27 07:01:49;;;;;;;11.05;6.60;;;15.20;96.80;;;;;;5035476;28;20065;-70
2021/09/27 07:04:16;;;;;;;8.25;5.10;;;15.10;96.90;;;;;;5027507;28;20029;-69
2021/09/27 07:06:41;;;;;;;9.75;5.50;;;15.20;97.00;;;;;;5031686;28;20433;-69
2021/09/27 07:09:07;;;;;;;9.95;5.95;;;15.20;96.80;;;;;;5032373;28;20025;-70
2021/09/27 07:11:33;;;;;;;7.93;5.80;;;15.20;97.10;;;;;;5032791;28;20431;-70
2021/09/27 07:13:59;;;;;;;8.65;5.40;;;15.30;97.20;;;;;;5030001;28;20049;-70
2021/09/27 07:16:25;;;;;;;10.43;6.07;;;15.30;97.20;;;;;;5030408;28;20034;-70
2021/09/27 07:18:50;;;;;;;13.70;5.95;;;15.30;97.10;;;;;;5026145;28;20759;-70
2021/09/27 07:21:16;;;;;;;10.27;6.28;;;15.30;97.40;;;;;;5031920;28;20033;-69
2021/09/27 07:23:41;;;;;;;13.13;6.65;;;15.40;97.50;;;;;;5032612;28;20383;-69
2021/09/27 07:26:10;;;;;;;13.13;6.88;;;15.40;97.30;;;;;;5031383;28;20026;-69
2021/09/27 07:28:36;;;;;;;11.18;6.47;;;15.40;97.60;;;;;;5032357;28;20057;-70
2021/09/27 07:31:02;;;;;;;9.95;5.75;;;15.50;97.50;;;;;;5029528;28;20037;-70
2021/09/27 07:33:28;;;;;;;12.15;7.35;;;15.50;97.70;;;;;;5030868;28;20025;-69
2021/09/27 07:35:55;;;;;;;15.02;7.45;;;15.50;97.80;;;;;;5031706;28;20029;-69
2021/09/27 07:38:22;;;;;;;11.52;6.93;;;15.50;97.70;;;;;;5030448;28;20136;-69
2021/09/27 07:40:48;;;;;;;13.27;7.13;;;15.60;97.70;;;;;;5031925;28;20125;-70
2021/09/27 07:43:14;;;;;;;15.40;7.88;;;15.60;97.80;;;;;;5031448;28;20037;-69
2021/09/27 07:45:39;;;;;;;14.15;8.30;;;15.70;98.00;;;;;;5029902;28;20053;-70
2021/09/27 07:48:10;;;;;;;14.60;8.05;;;15.70;98.10;;;;;;5046563;28;20033;-70
2021/09/27 07:50:37;;;;;;;14.32;7.80;;;15.80;98.50;;;;;;5032162;28;20021;-70
2021/09/27 07:53:03;;;;;;;15.60;8.32;;;15.80;97.90;;;;;;5030948;28;20601;-70
2021/09/27 07:55:30;;;;;;;13.88;7.95;;;16.00;98.60;;;;;;5045384;28;20032;-70
2021/09/27 07:57:56;;;;;;;13.68;8.07;;;16.00;98.00;;;;;;5026772;28;20049;-70
2021/09/27 08:00:22;;;;;;;17.75;9.18;;;16.10;98.10;;;;;;5030374;28;20026;-70
2021/09/27 08:02:48;;;;;;;15.77;8.70;;;16.20;97.50;;;;;;5031599;28;20036;-71
2021/09/27 08:05:26;;;;;;;15.27;8.85;;;16.20;97.10;;;;;;5030532;28;20025;-70
2021/09/27 08:07:52;;;;;;;;;;;16.30;97.40;;;;;;5025665;28;20036;-69
2021/09/27 08:10:19;;;;;;;16.83;7.82;;;16.40;97.40;;;;;;5030380;28;20281;-70
2021/09/27 08:12:45;;;;;;;17.92;8.35;;;16.40;96.50;;;;;;5031092;28;20021;-69
2021/09/27 08:15:18;;;;;;;15.55;8.18;;;16.50;96.60;;;;;;5030714;28;20056;-70
2021/09/27 08:17:46;;;;;;;18.55;8.70;;;16.60;96.20;;;;;;5027674;28;20411;-71
2021/09/27 08:20:15;;;;;;;16.02;7.57;;;16.60;96.10;;;;;;5030253;28;20026;-71
2021/09/27 08:22:40;;;;;;;;;;;16.70;96.40;;;;;;5030366;28;20387;-71
2021/09/27 08:25:07;;;;;;;14.05;7.72;;;16.80;96.50;;;;;;5026307;28;19916;-71
2021/09/27 08:27:33;;;;;;;14.13;7.10;;;16.90;96.00;;;;;;5027606;28;20112;-71
2021/09/27 08:29:58;;;;;;;14.18;7.20;;;16.90;95.50;;;;;;5043536;28;20243;-71
2021/09/27 08:32:24;;;;;;;12.95;7.40;;;16.90;94.80;;;;;;5024285;28;20030;-71
2021/09/27 08:34:52;;;;;;;12.80;7.25;;;17.00;95.00;;;;;;5029174;28;20041;-71
2021/09/27 08:37:22;;;;;;;15.45;7.70;;;17.10;95.20;;;;;;5023269;28;20041;-70
2021/09/27 08:39:48;;;;;;;15.25;8.02;;;17.20;94.80;;;;;;5030980;28;20072;-71
2021/09/27 08:42:27;;;;;;;12.10;6.80;;;17.20;94.80;;;;;;5029633;28;20101;-71
2021/09/27 08:45:12;;;;;;;12.35;6.97;;;17.30;94.40;;;;;;5029929;28;20063;-71
2021/09/27 08:47:55;;;;;;;11.75;7.75;;;17.50;94.00;;;;;;5029698;28;20104;-71
2021/09/27 08:50:43;;;;;;;12.25;6.95;;;17.60;94.10;;;;;;5030324;28;20021;-71
2021/09/27 08:53:24;;;;;;;12.55;7.15;;;17.70;93.80;;;;;;5019452;28;20021;-71
2021/09/27 08:55:53;;;;;;;10.43;6.65;;;17.70;93.50;;;;;;5030150;28;20588;-71
2021/09/27 08:58:22;;;;;;;10.35;6.75;;;17.70;92.90;;;;;;5026217;28;20104;-72
2021/09/27 09:00:56;;;;;;;12.63;6.85;;;17.70;92.60;;;;;;5029326;28;20124;-71
2021/09/27 09:03:28;;;;;;;12.52;7.40;;;17.70;92.10;;;;;;5029787;28;20021;-71
2021/09/27 09:06:33;;;;;;;10.60;6.50;;;17.80;92.00;;;;;;5030277;28;20029;-71
2021/09/27 09:09:12;;;;;;;12.52;7.00;;;17.90;92.30;;;;;;5027986;28;20055;-71
2021/09/27 09:11:43;;;;;;;11.50;5.72;;;18.00;91.60;;;;;;5027775;28;20018;-72
2021/09/27 09:14:17;;;;;;;9.35;6.22;;;18.00;91.20;;;;;;5034373;28;20022;-71
2021/09/27 09:16:45;;;;;;;9.13;6.25;;;18.10;91.60;;;;;;5027595;28;20033;-71
2021/09/27 09:19:13;;;;;;;;;;;18.30;91.80;;;;;;5036970;28;20068;-71
2021/09/27 09:21:48;;;;;;;;;;;18.40;90.00;;;;;;5034270;28;19967;-70
2021/09/27 09:24:18;;;;;;;8.05;5.28;;;18.30;90.30;;;;;;5025372;28;20362;-71
2021/09/27 09:26:48;;;;;;;7.07;5.18;;;18.40;89.50;;;;;;5027292;28;20033;-71
2021/09/27 09:29:19;;;;;;;8.68;6.40;;;18.40;89.00;;;;;;5023911;28;20801;-71
2021/09/27 09:31:52;;;;;;;10.80;6.22;;;18.50;89.10;;;;;;5023695;28;20057;-70
2021/09/27 09:34:18;;;;;;;9.75;6.28;;;18.50;90.50;;;;;;5025074;28;20355;-71
2021/09/27 09:36:49;;;;;;;9.10;6.00;;;18.40;89.60;;;;;;5024550;28;20060;-71
2021/09/27 09:39:25;;;;;;;8.90;5.78;;;18.40;90.00;;;;;;5022809;28;20087;-71
2021/09/27 09:41:58;;;;;;;9.77;6.13;;;18.50;90.30;;;;;;5025384;28;20437;-71
2021/09/27 09:44:33;;;;;;;9.05;5.60;;;18.50;90.10;;;;;;5022784;28;20364;-71
2021/09/27 09:47:02;;;;;;;9.85;5.95;;;18.50;88.80;;;;;;5021531;28;20100;-71
2021/09/27 09:49:30;;;;;;;9.00;5.95;;;18.60;89.60;;;;;;5024295;28;20091;-71
2021/09/27 09:52:02;;;;;;;;;;;18.60;88.70;;;;;;5022692;28;20036;-71
2021/09/27 09:54:30;;;;;;;10.10;5.97;;;18.60;88.60;;;;;;5025861;28;19913;-71
2021/09/27 09:57:28;;;;;;;9.75;5.93;;;18.70;88.70;;;;;;5038085;28;20089;-71
2021/09/27 10:00:06;;;;;;;10.05;6.35;;;18.70;89.00;;;;;;5023147;28;20029;-72
2021/09/27 10:02:34;;;;;;;9.60;5.82;;;18.70;88.40;;;;;;5036942;28;20044;-71
2021/09/27 10:05:04;;;;;;;;;;;18.70;87.90;;;;;;5023614;28;20505;-71
2021/09/27 10:07:42;;;;;;;7.07;5.10;;;18.80;87.80;;;;;;5024943;28;20326;-71
2021/09/27 10:10:13;;;;;;;9.60;5.25;;;18.90;86.30;;;;;;5024094;28;20029;-71
2021/09/27 10:12:52;;;;;;;8.00;4.93;;;18.90;86.80;;;;;;5021547;28;20029;-71
2021/09/27 10:15:26;;;;;;;7.72;5.07;;;18.90;85.80;;;;;;5023220;28;20056;-71
2021/09/27 10:18:05;;;;;;;8.45;5.20;;;18.80;86.80;;;;;;5024530;28;20482;-71
2021/09/27 10:20:38;;;;;;;8.10;4.57;;;18.90;86.10;;;;;;5036140;28;20076;-71
2021/09/27 10:23:11;;;;;;;6.13;4.32;;;19.00;85.10;;;;;;5024253;28;20104;-71
2021/09/27 10:25:45;;;;;;;4.63;4.07;;;18.90;82.10;;;;;;5036819;28;20032;-72
2021/09/27 10:28:16;;;;;;;6.32;4.50;;;18.90;80.40;;;;;;5024925;28;20833;-71
2021/09/27 10:30:54;;;;;;;6.85;4.00;;;18.90;82.10;;;;;;5020599;28;20033;-71
2021/09/27 10:33:36;;;;;;;5.65;4.47;;;18.90;84.30;;;;;;5021707;28;20038;-71
2021/09/27 10:36:16;;;;;;;6.00;4.40;;;19.10;83.90;;;;;;5022922;28;20534;-71
2021/09/27 10:38:49;;;;;;;6.20;4.60;;;19.20;83.10;;;;;;5024500;28;20063;-71
2021/09/27 10:41:17;;;;;;;5.93;4.53;;;19.20;82.40;;;;;;5042540;28;20049;-72
2021/09/27 10:43:45;;;;;;;6.00;3.72;;;19.20;83.80;;;;;;5030105;28;20104;-71
2021/09/27 10:46:10;;;;;;;5.30;4.43;;;19.20;81.60;;;;;;5017182;28;20080;-71
2021/09/27 10:48:39;;;;;;;6.32;4.40;;;19.30;83.60;;;;;;5026753;28;20029;-71
2021/09/27 10:51:07;;;;;;;5.25;3.90;;;19.40;81.50;;;;;;5026192;28;20040;-72
2021/09/27 10:53:45;;;;;;;5.93;4.15;;;19.40;80.00;;;;;;5021839;28;20402;-71
2021/09/27 10:56:41;;;;;;;6.75;4.43;;;19.40;79.80;;;;;;5040457;28;20025;-71
2021/09/27 10:59:12;;;;;;;5.85;4.43;;;19.30;81.50;;;;;;5024258;28;20486;-71
2021/09/27 11:01:52;;;;;;;6.80;4.25;;;19.40;80.80;;;;;;5025359;28;20041;-71
2021/09/27 11:04:30;;;;;;;7.07;4.43;;;19.40;79.90;;;;;;5030965;28;20083;-71
2021/09/27 11:06:58;;;;;;;8.23;4.93;;;19.40;80.80;;;;;;5026854;28;20033;-71
2021/09/27 11:09:28;;;;;;;;;;;19.50;81.20;;;;;;5030105;28;20064;-71
2021/09/27 11:12:01;;;;;;;5.68;4.35;;;19.50;78.90;;;;;;5028424;28;19909;-71
2021/09/27 11:14:42;;;;;;;6.43;4.25;;;19.50;80.20;;;;;;5032710;28;20063;-71
2021/09/27 11:17:08;;;;;;;6.70;4.20;;;19.50;79.20;;;;;;5031758;28;20051;-71
2021/09/27 11:19:33;;;;;;;5.55;3.85;;;19.30;80.20;;;;;;5032439;28;20108;-71
2021/09/27 11:22:37;;;;;;;6.68;4.50;;;19.20;79.70;;;;;;5032846;28;20109;-71
2021/09/27 11:25:14;;;;;;;7.38;4.00;;;19.10;81.10;;;;;;5010802;28;20414;-71
2021/09/27 11:27:40;;;;;;;5.30;3.90;;;19.00;81.10;;;;;;5041227;28;20033;-71
2021/09/27 11:30:26;;;;;;;4.72;3.97;;;19.10;81.80;;;;;;5047600;28;20498;-71
2021/09/27 11:32:57;;;;;;;6.28;4.10;;;19.30;83.40;;;;;;5026937;28;20044;-71
2021/09/27 11:35:31;;;;;;;5.93;3.70;;;19.40;78.10;;;;;;5030956;28;20029;-71
2021/09/27 11:38:06;;;;;;;4.85;3.55;;;19.50;79.90;;;;;;5030561;28;20034;-72
2021/09/27 11:40:39;;;;;;;5.45;4.07;;;19.60;78.00;;;;;;5031789;28;20582;-71
2021/09/27 11:43:14;;;;;;;6.80;4.40;;;19.60;78.40;;;;;;5044123;28;20071;-71
2021/09/27 11:45:45;;;;;;;4.88;3.95;;;19.50;77.70;;;;;;5031309;28;20060;-71
2021/09/27 11:48:40;;;;;;;6.32;3.95;;;19.50;79.80;;;;;;5031744;28;20450;-71
2021/09/27 11:51:09;;;;;;;4.85;3.85;;;19.50;77.30;;;;;;5025097;28;20121;-71
2021/09/27 11:54:07;;;;;;;5.85;4.15;;;19.70;77.10;;;;;;5031763;28;20033;-71
2021/09/27 11:56:59;;;;;;;5.95;3.75;;;19.80;75.60;;;;;;5025582;28;20037;-71
2021/09/27 11:59:39;;;;;;;5.25;3.58;;;19.90;78.30;;;;;;5029114;28;20036;-71
2021/09/27 12:02:31;;;;;;;4.85;3.58;;;20.00;76.80;;;;;;5024211;28;20033;-71
2021/09/27 12:05:15;;;;;;;6.03;3.30;;;20.00;74.50;;;;;;5030467;28;20041;-71
2021/09/27 12:07:53;;;;;;;4.25;3.35;;;19.80;75.50;;;;;;5031573;28;20033;-71
2021/09/27 12:10:25;;;;;;;;;;;19.90;76.40;;;;;;5025687;28;20021;-71
2021/09/27 12:12:59;;;;;;;5.95;3.90;;;19.80;75.60;;;;;;5025253;28;19913;-71
2021/09/27 12:15:30;;;;;;;6.03;3.55;;;19.80;75.50;;;;;;5024529;28;20029;-70
2021/09/27 12:17:56;;;;;;;5.07;3.88;;;19.90;76.50;;;;;;5030998;28;20098;-70
2021/09/27 12:20:39;;;;;;;5.97;3.92;;;19.90;77.10;;;;;;5031774;28;20494;-71
2021/09/27 12:23:11;;;;;;;6.43;4.18;;;20.00;77.20;;;;;;5029600;28;20029;-70
2021/09/27 12:25:42;;;;;;;6.53;3.47;;;20.00;75.10;;;;;;5031456;28;20025;-71
2021/09/27 12:28:26;;;;;;;4.05;3.08;;;20.00;75.50;;;;;;5029717;28;20022;-71
2021/09/27 12:30:59;;;;;;;5.20;3.80;;;19.90;73.30;;;;;;5030782;28;20030;-71
2021/09/27 12:33:25;;;;;;;6.05;3.70;;;19.90;75.60;;;;;;5030326;28;20021;-71
2021/09/27 12:36:07;;;;;;;5.45;3.63;;;20.00;76.40;;;;;;5029665;28;20038;-70
2021/09/27 12:38:33;;;;;;;5.85;3.25;;;19.90;75.30;;;;;;5030119;28;20030;-71
2021/09/27 12:41:00;;;;;;;3.78;3.28;;;19.80;75.20;;;;;;5046126;28;20037;-71
2021/09/27 12:43:31;;;;;;;5.40;3.72;;;19.90;75.80;;;;;;5029517;28;20481;-70
2021/09/27 12:46:22;;;;;;;5.43;3.80;;;19.80;76.00;;;;;;5030041;28;20048;-70
2021/09/27 12:48:55;;;;;;;5.90;3.78;;;19.90;76.30;;;;;;5030579;28;20036;-71
2021/09/27 12:51:29;;;;;;;5.78;3.50;;;20.00;77.00;;;;;;5027037;28;20021;-70
2021/09/27 12:54:23;;;;;;;6.05;4.00;;;20.10;76.20;;;;;;5030008;28;20022;-70
2021/09/27 12:56:50;;;;;;;3.85;2.97;;;20.20;77.30;;;;;;5029223;28;20017;-71
2021/09/27 12:59:19;;;;;;;4.78;3.63;;;20.20;72.80;;;;;;5030688;28;20025;-71
2021/09/27 13:01:52;;;;;;;4.07;3.42;;;20.20;72.50;;;;;;5028603;28;20037;-71
2021/09/27 13:04:32;;;;;;;4.45;3.15;;;20.20;73.20;;;;;;5029753;28;20033;-71
2021/09/27 13:07:10;;;;;;;4.03;3.28;;;20.30;73.60;;;;;;5029794;28;20037;-71
2021/09/27 13:09:53;;;;;;;3.72;2.97;;;20.30;70.80;;;;;;5030742;28;20486;-71
2021/09/27 13:12:24;;;;;;;3.30;2.72;;;20.30;72.60;;;;;;5024030;28;20026;-71
2021/09/27 13:14:59;;;;;;;4.43;3.63;;;20.40;72.00;;;;;;5030200;28;20028;-71
2021/09/27 13:17:27;;;;;;;4.70;3.63;;;20.50;72.20;;;;;;5021713;28;20064;-71
2021/09/27 13:19:58;;;;;;;5.43;3.67;;;20.50;74.80;;;;;;5030196;28;20030;-71
2021/09/27 13:22:36;;;;;;;4.82;3.47;;;20.60;74.70;;;;;;5022405;28;20033;-71
2021/09/27 13:25:19;;;;;;;4.20;3.20;;;20.60;73.60;;;;;;5029742;28;20476;-71
2021/09/27 13:28:02;;;;;;;4.88;3.45;;;20.60;74.80;;;;;;5041241;28;20052;-71
2021/09/27 13:30:34;;;;;;;4.00;3.28;;;20.60;73.30;;;;;;5037575;28;20041;-71
2021/09/27 13:33:07;;;;;;;4.07;3.40;;;20.60;73.90;;;;;;5029316;28;20083;-71